KPHF/PHF METAR and TAF weather

Enter ICAO airport designator
Station Type Date Time Source
KPHF METAR 2019/08/21 02:54 UTC NOAA

KPHF 210254Z AUTO 00000KT 10SM CLR 25/21 A3008 RMK AO2 SLP185 60000 T02500206 53010


Station Type Date Time Source
KPHF Decoded METAR 2019/08/21 02:54 UTC NOAA

Station name not available
Aug 20, 2019 - 10:54 PM EDT / 2019.08.21 0254 UTC
Wind: Calm:0
Visibility: 10 mile(s):0
Sky conditions: clear
Temperature: 77.0 F (25.0 C)
Dew Point: 69.1 F (20.6 C)
Relative Humidity: 76%
Pressure (altimeter): 30.08 in. Hg (1018 hPa)
Pressure tendency: 0.03 inches (1.0 hPa) higher than three hours ago
ob: KPHF 210254Z AUTO 00000KT 10SM CLR 25/21 A3008 RMK AO2 SLP185 60000 T02500206 53010
cycle: 3

Station Type Date Time Source
KPHF TAF 2019/08/21 01:18 UTC NOAA

TAF
AMD KPHF 210116Z 2101/2124 17006KT P6SM -SHRA BKN050
FM210300 23006KT P6SM BKN250
FM211600 21011KT P6SM BKN050

Example: see airport list